createdAt,value
2022-09-26T00:01:29.242Z,10.00
2022-09-26T00:04:01.851Z,10.00
2022-09-26T00:06:29.340Z,9.94
2022-09-26T00:08:56.687Z,9.97
2022-09-26T00:11:27.234Z,10.00
2022-09-26T00:13:56.775Z,10.05
2022-09-26T00:16:24.845Z,9.89
2022-09-26T00:18:54.084Z,9.83
2022-09-26T00:21:24.905Z,9.74
2022-09-26T00:23:52.479Z,9.69
2022-09-26T00:26:21.409Z,9.69
2022-09-26T00:28:48.584Z,9.66
2022-09-26T00:31:19.200Z,9.64
2022-09-26T00:33:47.003Z,9.60
2022-09-26T00:36:13.857Z,9.56
2022-09-26T00:38:40.731Z,9.60
2022-09-26T00:41:08.151Z,9.53
2022-09-26T00:43:39.108Z,9.51
2022-09-26T00:46:18.353Z,9.55
2022-09-26T00:48:49.060Z,9.53
2022-09-26T00:51:15.943Z,9.48
2022-09-26T00:53:46.901Z,9.44
2022-09-26T00:56:42.398Z,9.41
2022-09-26T00:59:22.327Z,9.35
2022-09-26T01:01:55.167Z,9.34
2022-09-26T01:04:23.400Z,9.31
2022-09-26T01:06:50.116Z,9.23
2022-09-26T01:09:17.052Z,9.20
2022-09-26T01:11:44.663Z,9.20
2022-09-26T01:14:13.636Z,9.22
2022-09-26T01:16:44.461Z,9.20
2022-09-26T01:19:49.465Z,9.14
2022-09-26T01:22:47.399Z,9.18
2022-09-26T01:25:49.340Z,9.14
2022-09-26T01:28:34.533Z,9.21
2022-09-26T01:31:35.211Z,9.17
2022-09-26T01:34:19.315Z,9.16
2022-09-26T01:37:02.594Z,9.17
2022-09-26T01:40:02.545Z,9.15
2022-09-26T01:42:36.509Z,9.10
2022-09-26T01:45:19.154Z,9.10
2022-09-26T01:48:02.375Z,9.02
2022-09-26T01:50:55.413Z,9.04
2022-09-26T01:53:25.051Z,9.06
2022-09-26T01:56:02.297Z,9.10
2022-09-26T01:58:36.972Z,9.07
2022-09-26T02:01:10.627Z,8.92
2022-09-26T02:03:43.804Z,8.91
2022-09-26T02:06:16.102Z,8.88
2022-09-26T02:08:48.628Z,8.92
2022-09-26T02:11:19.620Z,8.87
2022-09-26T02:13:56.844Z,8.83
2022-09-26T02:16:37.200Z,8.76
2022-09-26T02:19:11.255Z,8.75
2022-09-26T02:21:37.984Z,8.72
2022-09-26T02:24:04.799Z,8.78
2022-09-26T02:26:32.121Z,8.75
2022-09-26T02:28:59.173Z,8.67
2022-09-26T02:31:29.879Z,8.64
2022-09-26T02:33:57.031Z,8.71
2022-09-26T02:36:24.207Z,8.73
2022-09-26T02:38:50.957Z,8.76
2022-09-26T02:41:38.066Z,8.83
2022-09-26T02:44:29.185Z,8.75
2022-09-26T02:46:58.966Z,8.72
2022-09-26T02:49:54.428Z,8.76
2022-09-26T02:52:44.575Z,8.78
2022-09-26T02:55:20.591Z,8.82
2022-09-26T02:58:15.280Z,8.82
2022-09-26T03:01:01.268Z,8.82
2022-09-26T03:03:38.025Z,8.86
2022-09-26T03:06:08.899Z,8.85
2022-09-26T03:08:43.323Z,8.82
2022-09-26T03:11:13.721Z,8.85
2022-09-26T03:13:42.033Z,8.86
2022-09-26T03:16:10.223Z,8.83
2022-09-26T03:18:42.234Z,8.86
2022-09-26T03:21:09.175Z,8.85
2022-09-26T03:23:36.216Z,8.89
2022-09-26T03:26:09.795Z,8.83
2022-09-26T03:28:37.925Z,8.82
2022-09-26T03:31:05.427Z,8.85
2022-09-26T03:33:32.260Z,8.86
2022-09-26T03:36:00.042Z,8.73
2022-09-26T03:38:27.710Z,8.72
2022-09-26T03:40:56.956Z,8.72
2022-09-26T03:43:24.386Z,8.75
2022-09-26T03:45:51.476Z,8.77
2022-09-26T03:48:18.332Z,8.77
2022-09-26T03:50:45.003Z,8.73
2022-09-26T03:53:11.834Z,8.80
2022-09-26T03:55:38.708Z,8.82
2022-09-26T03:58:05.394Z,8.87
2022-09-26T04:00:32.187Z,8.91
2022-09-26T04:03:02.968Z,8.92
2022-09-26T04:05:29.790Z,8.95
2022-09-26T04:07:56.551Z,8.96
2022-09-26T04:10:24.181Z,8.94
2022-09-26T04:12:50.858Z,9.01
2022-09-26T04:15:17.865Z,9.01
2022-09-26T04:17:44.599Z,9.06
2022-09-26T04:20:11.300Z,9.05
2022-09-26T04:22:38.019Z,9.00
2022-09-26T04:25:05.167Z,9.01
2022-09-26T04:27:31.918Z,9.08
2022-09-26T04:29:58.613Z,9.07
2022-09-26T04:32:25.213Z,9.02
2022-09-26T04:34:51.944Z,9.04
2022-09-26T04:37:21.069Z,9.08
2022-09-26T04:39:50.628Z,9.05
2022-09-26T04:42:17.639Z,8.96
2022-09-26T04:44:44.315Z,9.02
2022-09-26T04:47:11.354Z,9.00
2022-09-26T04:49:38.153Z,9.03
2022-09-26T04:52:04.970Z,9.02
2022-09-26T04:54:31.745Z,9.03
2022-09-26T04:57:00.526Z,9.01
2022-09-26T04:59:27.231Z,9.00
2022-09-26T05:01:54.896Z,8.97
2022-09-26T05:04:27.245Z,8.95
2022-09-26T05:06:57.803Z,8.96
2022-09-26T05:09:25.386Z,8.90
2022-09-26T05:11:52.840Z,8.92
2022-09-26T05:14:19.714Z,8.87
2022-09-26T05:16:47.383Z,8.83
2022-09-26T05:19:14.327Z,8.86
2022-09-26T05:21:42.973Z,8.87
2022-09-26T05:24:28.350Z,8.77
2022-09-26T05:26:55.873Z,8.77
2022-09-26T05:29:22.620Z,8.75
2022-09-26T05:31:50.315Z,8.76
2022-09-26T05:34:20.042Z,8.72
2022-09-26T05:36:47.668Z,8.67
2022-09-26T05:39:32.745Z,8.67
2022-09-26T05:41:59.639Z,8.67
2022-09-26T05:44:27.332Z,8.73
2022-09-26T05:46:56.757Z,8.71
2022-09-26T05:49:23.654Z,8.73
2022-09-26T05:51:51.419Z,8.73
2022-09-26T05:54:18.165Z,8.68
2022-09-26T05:56:44.981Z,8.67
2022-09-26T05:59:11.719Z,8.71
2022-09-26T06:01:38.583Z,8.77
2022-09-26T06:04:05.300Z,8.79
2022-09-26T06:06:32.032Z,8.86
2022-09-26T06:08:58.780Z,8.95
2022-09-26T06:11:31.209Z,9.01
2022-09-26T06:14:00.583Z,9.08
2022-09-26T06:16:28.357Z,9.25
2022-09-26T06:18:55.801Z,9.21
2022-09-26T06:21:23.690Z,9.25
2022-09-26T06:23:50.477Z,9.38
2022-09-26T06:26:23.778Z,9.50
2022-09-26T06:28:57.972Z,9.67
2022-09-26T06:31:26.162Z,9.78
2022-09-26T06:33:54.407Z,9.81
2022-09-26T06:36:23.174Z,9.91
2022-09-26T06:38:50.170Z,9.95
2022-09-26T06:41:17.290Z,10.01
2022-09-26T06:43:45.341Z,9.95
2022-09-26T06:46:13.766Z,10.03
2022-09-26T06:48:41.090Z,10.07
2022-09-26T06:51:08.861Z,10.12
2022-09-26T06:53:35.502Z,10.08
2022-09-26T06:56:02.359Z,10.12
2022-09-26T06:58:29.087Z,10.15
2022-09-26T07:00:56.542Z,10.37
2022-09-26T07:03:25.288Z,10.26
2022-09-26T07:05:56.393Z,10.22
2022-09-26T07:08:32.590Z,10.68
2022-09-26T07:11:30.459Z,10.73
2022-09-26T07:13:51.045Z,10.33
2022-09-26T07:16:17.923Z,10.33
2022-09-26T07:18:44.681Z,10.45
2022-09-26T07:21:11.313Z,10.64
2022-09-26T07:23:37.995Z,10.57
2022-09-26T07:26:05.032Z,10.65
2022-09-26T07:28:31.673Z,10.81
2022-09-26T07:30:59.596Z,10.87
2022-09-26T07:33:26.478Z,10.95
2022-09-26T07:35:53.217Z,10.98
2022-09-26T07:38:19.995Z,11.18
2022-09-26T07:40:46.790Z,11.00
2022-09-26T07:43:20.042Z,10.97
2022-09-26T07:46:06.105Z,10.96
2022-09-26T07:48:51.465Z,10.96
2022-09-26T07:51:19.743Z,11.26
2022-09-26T07:53:46.718Z,11.26
2022-09-26T07:56:13.580Z,11.44
2022-09-26T07:58:41.998Z,11.63
2022-09-26T08:01:18.352Z,11.97
2022-09-26T08:03:48.040Z,12.16
2022-09-26T08:06:20.113Z,12.52
2022-09-26T08:08:48.172Z,12.62
2022-09-26T08:11:16.977Z,12.94
2022-09-26T08:13:44.096Z,12.93
2022-09-26T08:16:11.773Z,13.08
2022-09-26T08:18:38.620Z,12.91
2022-09-26T08:21:05.824Z,12.80
2022-09-26T08:23:33.839Z,12.72
2022-09-26T08:26:04.138Z,12.75
2022-09-26T08:28:30.877Z,12.85
2022-09-26T08:31:00.562Z,12.92
2022-09-26T08:33:27.337Z,12.84
2022-09-26T08:35:54.044Z,13.08
2022-09-26T08:38:21.565Z,13.11
2022-09-26T08:41:32.600Z,13.31
2022-09-26T08:44:25.193Z,13.25
2022-09-26T08:47:05.047Z,13.27
2022-09-26T08:49:50.931Z,13.08
2022-09-26T08:52:29.421Z,13.26
2022-09-26T08:54:59.267Z,13.31
2022-09-26T08:57:42.479Z,13.55
2022-09-26T09:00:15.745Z,13.37
2022-09-26T09:02:57.958Z,13.31
2022-09-26T09:05:34.190Z,13.09
2022-09-26T09:08:07.963Z,13.58
2022-09-26T09:11:06.245Z,13.35
2022-09-26T09:13:54.814Z,13.20
2022-09-26T09:16:36.891Z,13.21
2022-09-26T09:19:28.699Z,13.23
2022-09-26T09:22:33.610Z,13.27
2022-09-26T09:25:10.527Z,13.19
2022-09-26T09:27:53.906Z,12.89
2022-09-26T09:30:33.001Z,12.93
2022-09-26T09:33:12.880Z,12.78
2022-09-26T09:35:48.169Z,12.96
2022-09-26T09:38:18.315Z,13.48
2022-09-26T09:40:57.949Z,14.45
2022-09-26T09:43:42.143Z,15.31
2022-09-26T09:46:12.700Z,15.74
2022-09-26T09:48:39.496Z,15.92
2022-09-26T09:51:21.918Z,15.58
2022-09-26T09:54:18.149Z,15.28
2022-09-26T09:56:54.661Z,15.13
2022-09-26T09:59:40.136Z,14.91
2022-09-26T10:02:23.282Z,15.74
2022-09-26T10:05:33.618Z,15.56
2022-09-26T10:08:00.900Z,15.38
2022-09-26T10:10:56.918Z,15.78
2022-09-26T10:13:27.108Z,15.40
2022-09-26T10:16:06.234Z,15.24
2022-09-26T10:18:33.803Z,15.72
2022-09-26T10:21:28.714Z,14.96
2022-09-26T10:23:55.530Z,15.41
2022-09-26T10:26:31.065Z,15.75
2022-09-26T10:29:20.181Z,15.58
2022-09-26T10:31:55.443Z,15.40
2022-09-26T10:34:30.828Z,15.57
2022-09-26T10:37:20.018Z,15.93
2022-09-26T10:40:14.404Z,17.17
2022-09-26T10:42:43.127Z,16.54
2022-09-26T10:45:27.453Z,16.54
2022-09-26T10:47:59.312Z,16.49
2022-09-26T10:50:30.488Z,16.25
2022-09-26T10:53:02.780Z,16.79
2022-09-26T10:55:41.863Z,17.06
2022-09-26T10:58:17.315Z,18.33
2022-09-26T11:00:46.671Z,19.06
2022-09-26T11:03:16.755Z,19.32
2022-09-26T11:05:59.888Z,19.20
2022-09-26T11:08:32.584Z,19.20
2022-09-26T11:11:05.356Z,18.70
2022-09-26T11:13:45.882Z,18.50
2022-09-26T11:16:15.525Z,18.51
2022-09-26T11:18:45.205Z,18.92
2022-09-26T11:21:29.041Z,18.96
2022-09-26T11:24:06.232Z,18.99
2022-09-26T11:26:54.779Z,19.33
2022-09-26T11:29:44.333Z,20.12
2022-09-26T11:32:17.273Z,19.89
2022-09-26T11:34:45.204Z,20.20
2022-09-26T11:37:31.592Z,19.37
2022-09-26T11:40:10.124Z,19.59
2022-09-26T11:42:59.861Z,19.75
2022-09-26T11:45:47.486Z,19.50
2022-09-26T11:48:20.435Z,19.57
2022-09-26T11:50:47.281Z,19.76
2022-09-26T11:53:35.712Z,19.67
2022-09-26T11:56:46.297Z,19.77
2022-09-26T11:59:37.862Z,20.19
2022-09-26T12:02:20.237Z,19.44
2022-09-26T12:05:08.059Z,19.52
2022-09-26T12:08:00.338Z,19.66
2022-09-26T12:10:56.714Z,18.62
2022-09-26T12:13:24.928Z,18.85
2022-09-26T12:16:24.061Z,19.03
2022-09-26T12:19:19.408Z,19.06
2022-09-26T12:22:14.125Z,19.17
2022-09-26T12:25:07.283Z,18.28
2022-09-26T12:27:59.247Z,17.61
2022-09-26T12:30:34.996Z,17.31
2022-09-26T12:33:23.788Z,16.75
2022-09-26T12:36:25.925Z,16.46
2022-09-26T12:39:07.728Z,15.98
2022-09-26T12:42:11.032Z,15.82
2022-09-26T12:45:06.483Z,15.58
2022-09-26T12:47:44.302Z,15.54
2022-09-26T12:50:17.609Z,15.40
2022-09-26T12:52:59.489Z,15.45
2022-09-26T12:55:29.646Z,15.55
2022-09-26T12:58:14.373Z,15.53
2022-09-26T13:00:54.250Z,15.49
2022-09-26T13:03:34.701Z,15.63
2022-09-26T13:06:10.321Z,15.53
2022-09-26T13:09:09.559Z,15.54
2022-09-26T13:11:54.637Z,15.42
2022-09-26T13:14:57.109Z,15.22
2022-09-26T13:17:37.952Z,15.14
2022-09-26T13:20:19.684Z,15.17
2022-09-26T13:22:46.431Z,15.00
2022-09-26T13:25:20.844Z,14.78
2022-09-26T13:28:16.440Z,14.63
2022-09-26T13:30:57.982Z,14.13
2022-09-26T13:33:36.067Z,13.93
2022-09-26T13:36:04.472Z,13.78
2022-09-26T13:38:46.292Z,13.80
2022-09-26T13:41:12.941Z,13.89
2022-09-26T13:43:42.573Z,13.95
2022-09-26T13:46:17.846Z,14.06
2022-09-26T13:48:57.653Z,14.12
2022-09-26T13:51:27.110Z,14.19
2022-09-26T13:54:16.975Z,14.26
2022-09-26T13:56:47.836Z,14.40
2022-09-26T13:59:15.460Z,14.53
2022-09-26T14:02:19.872Z,14.60
2022-09-26T14:04:48.383Z,14.51
2022-09-26T14:07:36.275Z,14.66
2022-09-26T14:10:02.941Z,14.75
2022-09-26T14:12:51.315Z,14.94
2022-09-26T14:15:22.686Z,14.81
2022-09-26T14:17:52.631Z,14.91
2022-09-26T14:20:29.709Z,14.92
2022-09-26T14:22:57.478Z,14.99
2022-09-26T14:25:46.168Z,15.07
2022-09-26T14:28:33.271Z,15.11
2022-09-26T14:31:15.693Z,15.12
2022-09-26T14:33:44.160Z,15.07
2022-09-26T14:36:30.416Z,15.13
2022-09-26T14:38:57.506Z,15.10
2022-09-26T14:41:31.526Z,15.02
2022-09-26T14:44:16.417Z,15.02
2022-09-26T14:46:43.508Z,14.92
2022-09-26T14:49:23.643Z,14.95
2022-09-26T14:51:56.620Z,14.96
2022-09-26T14:54:27.290Z,14.94
2022-09-26T14:57:08.019Z,14.85
2022-09-26T14:59:34.676Z,14.80
2022-09-26T15:02:21.185Z,14.79
2022-09-26T15:04:59.410Z,14.83
2022-09-26T15:07:33.844Z,14.93
2022-09-26T15:10:13.592Z,14.74
2022-09-26T15:13:04.318Z,14.82
2022-09-26T15:15:52.466Z,14.78
2022-09-26T15:18:28.263Z,14.73
2022-09-26T15:21:03.966Z,14.60
2022-09-26T15:23:33.840Z,14.59
2022-09-26T15:26:05.302Z,14.57
2022-09-26T15:28:34.737Z,14.51
2022-09-26T15:31:22.216Z,14.48
2022-09-26T15:34:00.438Z,14.54
2022-09-26T15:36:38.021Z,14.33
2022-09-26T15:39:32.763Z,14.38
2022-09-26T15:42:19.825Z,14.23
2022-09-26T15:44:58.478Z,14.20
2022-09-26T15:47:31.721Z,13.97
2022-09-26T15:50:30.167Z,13.94
2022-09-26T15:53:00.241Z,13.81
2022-09-26T15:55:38.155Z,13.78
2022-09-26T15:58:07.057Z,13.71
2022-09-26T16:00:37.406Z,13.74
2022-09-26T16:03:20.403Z,13.71
2022-09-26T16:05:47.973Z,13.60
2022-09-26T16:08:27.933Z,13.63
2022-09-26T16:11:00.210Z,13.64
2022-09-26T16:13:42.462Z,13.59
2022-09-26T16:16:16.294Z,13.62
2022-09-26T16:18:56.556Z,13.46
2022-09-26T16:21:25.888Z,13.48
2022-09-26T16:23:57.884Z,13.33
2022-09-26T16:26:30.144Z,13.20
2022-09-26T16:28:58.588Z,13.30
2022-09-26T16:31:29.421Z,13.19
2022-09-26T16:33:58.746Z,13.10
2022-09-26T16:36:31.070Z,13.12
2022-09-26T16:39:03.469Z,13.14
2022-09-26T16:44:28.770Z,12.94
2022-09-26T16:47:02.549Z,13.23
2022-09-26T16:49:39.987Z,13.08
2022-09-26T16:52:36.363Z,13.11
2022-09-26T16:55:08.630Z,13.03
2022-09-26T16:57:38.554Z,12.93
2022-09-26T17:00:35.023Z,12.78
2022-09-26T17:03:03.361Z,12.70
2022-09-26T17:05:30.195Z,12.70
2022-09-26T17:07:56.948Z,12.63
2022-09-26T17:10:25.628Z,12.62
2022-09-26T17:12:53.468Z,12.66
2022-09-26T17:15:27.303Z,12.62
2022-09-26T17:17:56.796Z,12.57
2022-09-26T17:20:24.143Z,12.52
2022-09-26T17:22:52.003Z,12.55
2022-09-26T17:25:18.811Z,12.49
2022-09-26T17:27:47.700Z,12.52
2022-09-26T17:30:17.297Z,12.46
2022-09-26T17:32:49.602Z,12.58
2022-09-26T17:35:19.171Z,12.50
2022-09-26T17:37:45.969Z,12.47
2022-09-26T17:40:24.241Z,12.46
2022-09-26T17:42:57.960Z,12.45
2022-09-26T17:45:31.906Z,12.41
2022-09-26T17:48:02.512Z,12.48
2022-09-26T17:50:32.304Z,12.46
2022-09-26T17:53:02.115Z,12.46
2022-09-26T17:55:29.797Z,12.46
2022-09-26T17:57:57.693Z,12.45
2022-09-26T18:00:24.691Z,12.44
2022-09-26T18:03:19.086Z,12.41
2022-09-26T18:05:46.254Z,12.33
2022-09-26T18:08:28.429Z,12.33
2022-09-26T18:10:58.896Z,12.40
2022-09-26T18:13:31.415Z,12.34
2022-09-26T18:16:01.165Z,12.28
2022-09-26T18:18:30.658Z,12.23
2022-09-26T18:21:03.567Z,12.25
2022-09-26T18:23:47.626Z,12.23
2022-09-26T18:26:21.171Z,12.16
2022-09-26T18:28:50.903Z,12.21
2022-09-26T18:31:24.327Z,12.14
2022-09-26T18:33:51.135Z,12.13
2022-09-26T18:36:18.591Z,12.13
2022-09-26T18:38:45.297Z,12.10
2022-09-26T18:41:12.338Z,12.15
2022-09-26T18:43:42.436Z,12.04
2022-09-26T18:46:13.528Z,12.07
2022-09-26T18:48:41.689Z,11.98
2022-09-26T18:51:10.835Z,12.10
2022-09-26T18:53:40.171Z,12.00
2022-09-26T18:56:26.728Z,12.01
2022-09-26T18:58:54.297Z,12.10
2022-09-26T19:01:38.334Z,12.16
2022-09-26T19:04:07.343Z,12.18
2022-09-26T19:06:41.694Z,12.21
2022-09-26T19:09:15.160Z,12.17
2022-09-26T19:11:42.632Z,12.30
2022-09-26T19:14:21.010Z,12.34
2022-09-26T19:16:50.027Z,12.31
2022-09-26T19:19:17.860Z,12.28
2022-09-26T19:22:00.093Z,12.27
2022-09-26T19:24:33.564Z,12.16
2022-09-26T19:27:07.944Z,12.22
2022-09-26T19:29:40.315Z,12.26
2022-09-26T19:32:16.794Z,12.28
2022-09-26T19:34:47.770Z,12.28
2022-09-26T19:37:14.739Z,12.34
2022-09-26T19:39:41.808Z,12.37
2022-09-26T19:42:08.526Z,12.35
2022-09-26T19:44:35.942Z,12.36
2022-09-26T19:47:03.898Z,12.36
2022-09-26T19:49:32.644Z,12.32
2022-09-26T19:52:02.567Z,12.35
2022-09-26T19:54:30.244Z,12.26
2022-09-26T19:56:57.327Z,12.27
2022-09-26T19:59:27.478Z,12.33
2022-09-26T20:01:54.926Z,12.36
2022-09-26T20:04:22.201Z,12.35
2022-09-26T20:06:49.157Z,12.32
2022-09-26T20:09:18.537Z,12.34
2022-09-26T20:11:46.117Z,12.34
2022-09-26T20:14:25.410Z,12.40
2022-09-26T20:16:55.890Z,12.37
2022-09-26T20:19:34.882Z,12.40
2022-09-26T20:22:03.880Z,12.36
2022-09-26T20:24:32.139Z,12.40
2022-09-26T20:27:02.042Z,12.40
2022-09-26T20:29:29.503Z,12.44
2022-09-26T20:31:56.630Z,12.48
2022-09-26T20:34:23.384Z,12.43
2022-09-26T20:36:51.541Z,12.37
2022-09-26T20:39:24.052Z,12.43
2022-09-26T20:41:52.066Z,12.44
2022-09-26T20:44:24.483Z,12.42
2022-09-26T20:46:56.230Z,12.40
2022-09-26T20:49:43.880Z,12.43
2022-09-26T20:52:24.168Z,12.45
2022-09-26T20:54:52.299Z,12.43
2022-09-26T20:57:19.858Z,12.46
2022-09-26T20:59:47.026Z,12.44
2022-09-26T21:02:17.093Z,12.47
2022-09-26T21:04:43.934Z,12.46
2022-09-26T21:07:15.161Z,12.43
2022-09-26T21:09:45.338Z,12.50
2022-09-26T21:12:13.264Z,12.49
2022-09-26T21:14:39.970Z,12.51
2022-09-26T21:17:28.237Z,12.52
2022-09-26T21:19:55.910Z,12.52
2022-09-26T21:22:26.392Z,12.42
2022-09-26T21:24:54.056Z,12.47
2022-09-26T21:27:20.788Z,12.46
2022-09-26T21:29:47.813Z,12.50
2022-09-26T21:32:19.439Z,12.45
2022-09-26T21:35:01.595Z,12.46
2022-09-26T21:37:29.447Z,12.46
2022-09-26T21:39:56.321Z,12.51
2022-09-26T21:42:25.680Z,12.48
2022-09-26T21:44:58.863Z,12.45
2022-09-26T21:47:27.038Z,12.44
2022-09-26T21:49:54.569Z,12.46
2022-09-26T21:52:30.922Z,12.66
2022-09-26T21:55:00.410Z,12.53
2022-09-26T21:57:33.902Z,12.46
2022-09-26T22:00:01.446Z,12.43
2022-09-26T22:02:28.613Z,12.38
2022-09-26T22:04:55.319Z,12.42
2022-09-26T22:07:22.112Z,12.35
2022-09-26T22:09:48.918Z,12.36
2022-09-26T22:12:15.740Z,12.32
2022-09-26T22:14:42.510Z,12.35
2022-09-26T22:17:09.722Z,12.30
2022-09-26T22:19:36.470Z,12.27
2022-09-26T22:22:03.707Z,12.28
2022-09-26T22:24:30.592Z,12.30
2022-09-26T22:26:57.430Z,12.25
2022-09-26T22:29:24.354Z,12.30
2022-09-26T22:31:51.094Z,12.29
2022-09-26T22:34:18.006Z,12.34
2022-09-26T22:36:44.699Z,12.29
2022-09-26T22:39:11.489Z,12.28
2022-09-26T22:41:38.248Z,12.34
2022-09-26T22:44:05.006Z,12.32
2022-09-26T22:46:35.995Z,12.31
2022-09-26T22:49:02.913Z,12.21
2022-09-26T22:51:29.794Z,12.23
2022-09-26T22:53:56.478Z,12.18
2022-09-26T22:56:23.495Z,12.15
2022-09-26T22:58:51.653Z,12.16
2022-09-26T23:01:23.902Z,12.17
2022-09-26T23:03:54.976Z,12.11
2022-09-26T23:06:23.007Z,12.07
2022-09-26T23:08:50.085Z,11.97
2022-09-26T23:11:18.300Z,11.87
2022-09-26T23:13:46.531Z,11.83
2022-09-26T23:16:20.289Z,11.90
2022-09-26T23:18:48.743Z,11.73
2022-09-26T23:21:21.685Z,11.78
2022-09-26T23:23:54.893Z,11.72
2022-09-26T23:26:23.399Z,11.75
2022-09-26T23:28:52.314Z,11.82
2022-09-26T23:31:19.787Z,11.77
2022-09-26T23:33:47.640Z,11.70
2022-09-26T23:36:14.860Z,11.70
2022-09-26T23:38:41.658Z,11.75
2022-09-26T23:41:10.910Z,11.72
2022-09-26T23:43:38.752Z,11.71
2022-09-26T23:46:05.967Z,11.67
2022-09-26T23:48:33.142Z,11.64
2022-09-26T23:50:59.933Z,11.69
2022-09-26T23:53:26.847Z,11.72
2022-09-26T23:56:01.504Z,11.75
2022-09-26T23:58:28.638Z,11.68
